메인 페이지
METAR-TAF:

METAR-TAF

공항 :

McGuire Air Force Base

Wrightstown, 뉴저지, 미국

위도: 40-01N, 경도: 074-36W, 고도: 41m

현재 날씨관측

예보는 22분 전, 09:56시(UTC)에 발표되었습니다.
북동4kt
온도 8°C
습도 100%
기압 1014 hPa
시정: 16.1km
고도 400ft 상공 흐림

METAR: KWRI 300956Z 04004KT 10SM OVC004 08/08 A2994 RMK AO2A TWR VIS 2 CIG 003 RWY18 SLP139 T00810080 $

시각: 06:18 (10:18 UTC)

예보

예보는 6 시간 18분 전, 04:00시(UTC)에 발표되었습니다.
예보 대상 시간: 30일 04시부터 31일 08시까지 (UTC)
북서6kt
시정: 8000m
고도 300ft 상공 흐림
박무
전환 중
30일 08시부터 30일 10시까지 (UTC)
서북서10kt, 순간 최대 풍속 15kt
시정 10km 이상
고도 5000ft 상공 구름 보통
전환 중
30일 17시부터 30일 18시까지 (UTC)
북서15kt, 순간 최대 풍속 25kt
시정 10km 이상
고도 5000ft 상공 구름 보통
전환 중
30일 22시부터 30일 23시까지 (UTC)
북북서8kt
시정 10km 이상
고도 4000ft 상공 구름 많음

TAF: KWRI 300400Z 3004/3108 31006KT 8000 BR OVC003 QNH2986INS BECMG 3008/3010 29010G15KT 9999 NSW SCT050 QNH2981INS BECMG 3017/3018 31015G25KT 9999 SCT050 QNH2978INS BECMG 3022/3023 33008KT 9999 BKN040 QNH2981INS TX18/3018Z TN07/3011Z

4,000개 이상의 공항 관측 자료 및 예보 (METAR 및 TAF 보고).

지도상에서 검색 가능한 기상관측소가 노란 점과 빨간 점으로 표시되어 있습니다.

기상관측소 명을 보려면 표시 위로 마우스를 이동하세요.

날씨 관측과 예보를 보려면 클릭하세요.

지도 변경 : 확대하려면 엑스 표시가 있는 녹색 버튼, 축소하려면 빼기 표시가 있는 녹색 버튼, 다음 페이지의 지도를 보려면 녹색 화살표를 클릭하세요.


METAR-TAF: